Time;durP1;ratioP1;P1;durP2;ratioP2;P2;SDS_P1;SDS_P2;PMS_P1;PMS_P2;Temp;Humidity;BMP_temperature;BMP_pressure;BME280_temperature;BME280_humidity;BME280_pressure;Samples;Min_cycle;Max_cycle;Signal;HPM_P1;HPM_P2
2022/08/04 00:01:49;;;;;;;2.50;1.63;;;;;;;20.89;73.33;98501.84;5088250;28;20032;-71
2022/08/04 00:04:26;;;;;;;2.78;2.00;;;;;;;20.84;76.61;98495.53;5085943;28;20028;-71
2022/08/04 00:07:19;;;;;;;3.78;2.20;;;;;;;20.84;79.28;98490.88;5090525;28;20024;-71
2022/08/04 00:10:04;;;;;;;6.13;2.17;;;;;;;20.86;79.02;98491.41;5087669;28;20082;-71
2022/08/04 00:12:32;;;;;;;4.85;1.75;;;;;;;20.67;77.63;98466.44;5081875;28;20077;-71
2022/08/04 00:15:00;;;;;;;2.53;1.80;;;;;;;20.74;77.34;98483.44;5091346;28;20047;-71
2022/08/04 00:17:38;;;;;;;2.40;1.85;;;;;;;20.76;77.53;98484.00;5090721;28;20114;-71
2022/08/04 00:20:08;;;;;;;2.00;1.50;;;;;;;20.64;76.33;98477.16;5080787;28;20115;-71
2022/08/04 00:22:37;;;;;;;1.83;1.60;;;;;;;20.70;75.75;98473.31;5088825;28;20038;-71
2022/08/04 00:25:04;;;;;;;2.50;1.90;;;;;;;20.65;75.90;98468.63;5078865;28;20028;-71
2022/08/04 00:27:30;;;;;;;4.35;1.83;;;;;;;20.62;76.37;98480.19;5089136;28;20396;-71
2022/08/04 00:29:56;;;;;;;3.03;1.65;;;;;;;20.53;78.05;98474.38;5085576;28;20085;-71
2022/08/04 00:32:22;;;;;;;3.90;1.60;;;;;;;20.58;79.58;98481.84;5082819;28;20401;-71
2022/08/04 00:34:48;;;;;;;2.63;1.50;;;;;;;20.53;80.04;98481.81;5086940;28;20020;-71
2022/08/04 00:37:14;;;;;;;4.40;1.95;;;;;;;20.54;80.75;98491.72;5090285;28;20031;-71
2022/08/04 00:39:41;;;;;;;4.90;2.15;;;;;;;20.61;79.56;98475.78;5088960;28;20082;-71
2022/08/04 00:42:34;;;;;;;2.78;1.77;;;;;;;20.48;77.48;98476.31;5093916;28;20030;-71
2022/08/04 00:45:22;;;;;;;5.32;1.90;;;;;;;20.40;79.46;98469.44;5077373;28;20027;-71
2022/08/04 00:48:25;;;;;;;2.28;1.80;;;;;;;20.38;79.84;98476.31;5088393;28;20035;-71
2022/08/04 00:51:04;;;;;;;2.20;1.70;;;;;;;20.24;80.39;98459.56;5070397;28;20020;-71
2022/08/04 00:53:54;;;;;;;4.57;1.85;;;;;;;20.35;81.73;98472.19;5082205;28;20020;-71
2022/08/04 00:56:19;;;;;;;;;;;;;;;20.31;82.85;98476.59;5087448;28;20077;-71
2022/08/04 00:58:58;;;;;;;2.93;1.87;;;;;;;20.21;83.44;98460.13;5088491;28;20297;-71
2022/08/04 01:01:54;;;;;;;3.60;1.67;;;;;;;20.31;83.79;98479.34;5088588;28;20024;-71
2022/08/04 01:04:44;;;;;;;6.32;1.85;;;;;;;20.25;83.91;98481.28;5090500;28;20574;-72
2022/08/04 01:07:38;;;;;;;2.58;1.67;;;;;;;20.35;85.62;98483.19;5075882;28;20118;-71
2022/08/04 01:10:20;;;;;;;4.20;2.00;;;;;;;20.24;83.31;98482.34;5085892;28;20413;-71
2022/08/04 01:13:28;;;;;;;2.10;1.60;;;;;;;20.19;84.20;98487.84;5074250;28;20115;-72
2022/08/04 01:16:02;;;;;;;2.50;1.60;;;;;;;20.09;86.04;98471.34;5077055;28;20031;-72
2022/08/04 01:18:33;;;;;;;2.88;1.52;;;;;;;20.10;85.19;98486.75;5085532;28;20027;-72
2022/08/04 01:21:05;;;;;;;5.38;1.70;;;;;;;20.02;83.00;98481.81;5089226;28;20505;-72
2022/08/04 01:24:08;;;;;;;5.32;1.77;;;;;;;19.95;82.66;98481.25;5081527;28;20486;-72
2022/08/04 01:26:54;;;;;;;3.45;1.98;;;;;;;19.90;84.30;98482.88;5087474;28;20501;-72
2022/08/04 01:29:22;;;;;;;5.00;1.75;;;;;;;19.80;86.16;98482.03;5095187;28;20385;-72
2022/08/04 01:31:53;;;;;;;2.03;1.52;;;;;;;19.75;85.51;98482.03;5101350;28;20059;-72
2022/08/04 01:34:20;;;;;;;3.42;1.77;;;;;;;19.65;86.87;98483.63;5086989;28;20039;-72
2022/08/04 01:37:02;;;;;;;2.00;1.48;;;;;;;19.51;86.51;98457.78;5085703;28;20042;-72
2022/08/04 01:39:40;;;;;;;2.63;1.90;;;;;;;19.57;86.87;98472.31;5088321;28;20031;-72
2022/08/04 01:42:07;;;;;;;4.90;1.37;;;;;;;19.52;86.75;98475.06;5096915;28;20103;-72
2022/08/04 01:44:35;;;;;;;2.45;1.60;;;;;;;19.39;86.76;98458.03;5073689;28;20028;-72
2022/08/04 01:47:01;;;;;;;1.98;1.52;;;;;;;19.51;87.48;98473.41;5081829;28;20060;-72
2022/08/04 01:49:48;;;;;;;3.70;1.40;;;;;;;19.52;86.21;98475.91;5080247;28;21879;-72
2022/08/04 01:52:16;;;;;;;2.55;1.50;;;;;;;19.59;85.12;98470.97;5080492;28;20048;-72
2022/08/04 01:54:42;;;;;;;2.53;1.50;;;;;;;19.49;84.85;98449.84;5087614;28;20052;-72
2022/08/04 01:57:10;;;;;;;2.25;1.60;;;;;;;19.68;82.88;98474.06;5084501;28;20524;-72
2022/08/04 01:59:37;;;;;;;2.20;1.40;;;;;;;19.68;82.70;98474.88;5088790;28;20055;-72
2022/08/04 02:02:03;;;;;;;2.28;1.30;;;;;;;19.67;82.61;98475.13;5087631;28;20020;-72
2022/08/04 02:04:29;;;;;;;3.88;1.80;;;;;;;19.56;83.05;98462.47;5085850;28;20099;-72
2022/08/04 02:07:16;;;;;;;2.25;1.52;;;;;;;19.67;82.48;98477.88;5086509;28;20115;-72
2022/08/04 02:09:44;;;;;;;1.60;1.38;;;;;;;19.74;83.03;98477.63;5088205;28;20028;-72
2022/08/04 02:12:35;;;;;;;2.40;1.60;;;;;;;19.84;83.84;98466.69;5088987;28;20032;-72
2022/08/04 02:15:25;;;;;;;3.08;1.88;;;;;;;19.75;83.69;98449.91;5084144;28;20677;-72
2022/08/04 02:17:59;;;;;;;2.97;1.80;;;;;;;19.78;83.80;98448.53;5085935;28;20478;-72
2022/08/04 02:20:31;;;;;;;6.30;1.50;;;;;;;19.86;83.66;98461.75;5082349;28;20035;-72
2022/08/04 02:23:03;;;;;;;2.67;1.70;;;;;;;19.93;83.23;98467.78;5090277;28;20052;-72
2022/08/04 02:25:38;;;;;;;2.83;1.75;;;;;;;19.88;83.42;98465.84;5096890;22;20105;-56
2022/08/04 02:28:18;;;;;;;2.35;1.90;;;;;;;19.87;83.02;98466.94;5070625;28;20089;-56
2022/08/04 02:31:06;;;;;;;2.92;1.80;;;;;;;19.70;84.90;98471.84;5069115;28;20035;-56
2022/08/04 02:33:43;;;;;;;5.55;1.58;;;;;;;19.61;86.08;98460.56;5082624;28;20077;-56
2022/08/04 02:36:21;;;;;;;2.15;1.52;;;;;;;19.52;84.90;98469.56;5085685;28;20023;-56
2022/08/04 02:38:55;;;;;;;3.60;1.40;;;;;;;19.49;85.69;98465.44;5091882;28;20131;-57
2022/08/04 02:41:22;;;;;;;2.25;1.58;;;;;;;19.40;85.64;98461.59;5093637;28;20438;-57
2022/08/04 02:43:48;;;;;;;3.65;1.42;;;;;;;19.36;86.32;98469.53;5094580;28;20027;-57
2022/08/04 02:46:19;;;;;;;2.85;1.42;;;;;;;19.36;85.46;98465.94;5103537;28;20028;-57
2022/08/04 02:48:50;;;;;;;2.30;1.50;;;;;;;19.36;86.64;98474.19;5090850;28;20478;-57
2022/08/04 02:51:18;;;;;;;2.33;1.48;;;;;;;19.28;86.42;98475.53;5083320;28;20028;-58
2022/08/04 02:53:48;;;;;;;2.05;1.45;;;;;;;19.23;87.25;98459.91;5093260;28;20024;-57
2022/08/04 02:56:17;;;;;;;3.08;1.50;;;;;;;19.19;86.10;98461.50;5091640;28;20027;-57
2022/08/04 02:58:47;;;;;;;2.53;1.50;;;;;;;19.17;85.42;98462.88;5085965;28;20126;-57
2022/08/04 03:01:13;;;;;;;2.00;1.48;;;;;;;19.16;87.99;98462.06;5090938;28;20028;-57
2022/08/04 03:04:01;;;;;;;1.98;1.52;;;;;;;19.16;89.30;98462.06;5088075;28;20027;-57
2022/08/04 03:07:05;;;;;;;2.10;1.40;;;;;;;19.17;87.07;98457.38;5083191;28;20115;-57
2022/08/04 03:10:08;;;;;;;2.50;1.80;;;;;;;19.10;88.92;98463.13;5089623;28;20030;-56
2022/08/04 03:12:58;;;;;;;4.85;1.70;;;;;;;19.03;90.58;98465.28;5086250;28;20076;-56
2022/08/04 03:15:51;;;;;;;7.60;1.83;;;;;;;19.09;88.83;98457.91;5089684;28;20023;-58
2022/08/04 03:18:35;;;;;;;3.13;1.70;;;;;;;19.22;87.51;98451.91;5090673;28;20027;-57
2022/08/04 03:21:38;;;;;;;2.55;1.80;;;;;;;19.20;86.58;98462.31;5093778;28;20023;-57
2022/08/04 03:24:22;;;;;;;2.65;1.90;;;;;;;19.17;87.94;98457.38;5087177;28;20079;-57
2022/08/04 03:27:04;;;;;;;2.80;1.90;;;;;;;19.05;90.43;98466.66;5092081;28;20034;-57
2022/08/04 03:29:44;;;;;;;3.60;1.98;;;;;;;18.96;91.62;98467.44;5089913;28;20054;-56
2022/08/04 03:32:34;;;;;;;2.17;1.60;;;;;;;18.92;92.82;98472.63;5084867;28;20063;-57
2022/08/04 03:35:30;;;;;;;2.80;1.60;;;;;;;18.94;92.76;98470.47;5086614;28;20031;-57
2022/08/04 03:38:27;;;;;;;2.00;1.70;;;;;;;18.99;92.62;98467.75;5090331;28;20038;-57
2022/08/04 03:41:31;;;;;;;2.95;1.63;;;;;;;19.02;93.26;98469.94;5091063;28;20134;-57
2022/08/04 03:44:40;;;;;;;2.78;1.90;;;;;;;18.95;94.06;98472.09;5083948;28;20023;-57
2022/08/04 03:47:09;;;;;;;2.47;1.70;;;;;;;18.92;96.22;98477.28;5047443;28;20495;-57
2022/08/04 03:49:49;;;;;;;4.43;1.60;;;;;;;18.96;98.20;98473.72;5088317;28;20035;-57
2022/08/04 03:55:43;;;;;;;2.83;1.83;;;;;;;18.81;99.09;98471.75;5104006;28;20442;-57
2022/08/04 03:58:51;;;;;;;2.38;1.58;;;;;;;19.00;96.19;98471.31;5020323;28;20339;-57
2022/08/04 04:01:38;;;;;;;3.60;1.98;;;;;;;18.99;95.75;98473.22;5093058;28;20024;-57
2022/08/04 04:04:32;;;;;;;3.17;1.90;;;;;;;18.92;96.23;98477.28;5086939;28;20035;-57
2022/08/04 04:07:25;;;;;;;2.08;1.73;;;;;;;18.87;96.73;98467.13;5087493;28;20034;-58
2022/08/04 04:10:07;;;;;;;6.18;2.05;;;;;;;18.86;96.47;98470.94;5088786;28;20066;-58
2022/08/04 04:12:58;;;;;;;2.38;1.85;;;;;;;18.84;93.36;98475.88;5081197;28;20019;-58
2022/08/04 04:16:01;;;;;;;3.25;1.98;;;;;;;18.83;92.17;98474.22;5087934;28;20072;-58
2022/08/04 04:18:49;;;;;;;3.22;1.70;;;;;;;18.85;91.05;98465.72;5090056;28;20023;-58
2022/08/04 04:21:52;;;;;;;2.83;1.65;;;;;;;18.88;90.12;98468.75;5084940;28;20019;-57
2022/08/04 04:24:42;;;;;;;3.17;1.85;;;;;;;19.14;88.21;98463.41;5087718;28;20099;-57
2022/08/04 04:27:08;;;;;;;2.10;1.60;;;;;;;19.08;88.84;98465.31;5089170;28;20042;-58
2022/08/04 04:29:55;;;;;;;2.08;1.80;;;;;;;19.04;89.69;98465.00;5086883;28;20027;-57
2022/08/04 04:32:26;;;;;;;2.58;1.75;;;;;;;19.09;89.60;98460.63;5090656;28;20024;-57
2022/08/04 04:35:24;;;;;;;5.05;1.88;;;;;;;19.07;88.85;98468.31;5086383;28;20041;-57
2022/08/04 04:38:37;;;;;;;3.05;1.70;;;;;;;19.10;90.24;98470.50;5103070;28;20827;-57
2022/08/04 04:41:49;;;;;;;2.40;1.60;;;;;;;19.05;87.70;98472.16;5102208;28;20042;-57
2022/08/04 04:44:33;;;;;;;2.47;1.50;;;;;;;19.04;86.71;98472.41;5025473;28;20037;-56
2022/08/04 04:47:23;;;;;;;5.07;1.70;;;;;;;19.19;85.94;98472.47;5042321;28;20052;-56
2022/08/04 04:50:33;;;;;;;5.20;1.83;;;;;;;19.32;83.42;98460.19;5075017;28;20057;-57
2022/08/04 04:53:11;;;;;;;2.70;1.80;;;;;;;19.37;84.48;98473.09;5089931;28;20050;-57
2022/08/04 04:56:29;;;;;;;7.30;2.15;;;;;;;19.44;85.48;98476.41;5092786;28;20051;-58
2022/08/04 04:58:56;;;;;;;4.07;2.07;;;;;;;19.58;84.48;98480.31;5052881;28;20035;-57
2022/08/04 05:01:56;;;;;;;3.30;1.95;;;;;;;19.71;82.45;98479.00;5088953;28;20141;-60
2022/08/04 05:04:36;;;;;;;2.00;1.70;;;;;;;19.82;82.30;98477.91;5085093;28;20113;-57
2022/08/04 05:07:09;;;;;;;2.85;1.70;;;;;;;19.93;81.98;98470.53;5086019;28;20118;-59
2022/08/04 05:10:01;;;;;;;4.22;2.55;;;;;;;20.11;80.85;98472.75;5081924;28;20141;-57
2022/08/04 05:12:41;;;;;;;7.03;2.47;;;;;;;20.28;81.05;98482.66;5087011;28;20039;-58
2022/08/04 05:15:09;;;;;;;8.85;2.30;;;;;;;20.36;80.68;98482.91;5083415;28;20024;-59
2022/08/04 05:17:38;;;;;;;5.40;2.22;;;;;;;20.44;78.01;98480.72;5082092;28;20028;-58
2022/08/04 05:20:14;;;;;;;7.40;2.25;;;;;;;20.52;76.76;98491.16;5077511;28;20028;-58
2022/08/04 05:22:53;;;;;;;5.78;2.20;;;;;;;20.70;76.36;98487.88;5081779;28;20324;-58
2022/08/04 05:25:36;;;;;;;3.95;2.00;;;;;;;20.85;74.16;98477.94;5080950;28;20058;-58
2022/08/04 05:28:07;;;;;;;4.30;2.00;;;;;;;21.02;73.72;98484.75;5087969;28;20027;-66
2022/08/04 05:30:47;;;;;;;4.00;1.95;;;;;;;21.12;69.74;98486.66;5087592;28;20019;-66
2022/08/04 05:33:14;;;;;;;4.60;1.67;;;;;;;21.32;68.95;98484.94;5083522;28;20030;-66
2022/08/04 05:35:44;;;;;;;3.03;1.80;;;;;;;21.46;68.04;98480.53;5090334;28;20147;-58
2022/08/04 05:38:13;;;;;;;3.88;1.98;;;;;;;21.78;65.73;98482.81;5092333;28;20027;-58
2022/08/04 05:40:39;;;;;;;5.38;1.83;;;;;;;22.06;64.27;98478.50;5092478;28;20031;-58
2022/08/04 05:43:06;;;;;;;3.60;1.60;;;;;;;22.33;63.75;98473.66;5087364;28;20023;-58
2022/08/04 05:45:35;;;;;;;6.43;1.98;;;;;;;22.36;62.73;98482.16;5091660;28;20042;-58
2022/08/04 05:48:02;;;;;;;4.70;2.00;;;;;;;22.38;62.99;98479.94;5090765;28;20452;-58
2022/08/04 05:50:29;;;;;;;3.03;1.58;;;;;;;22.69;62.39;98476.91;5091045;28;20114;-58
2022/08/04 05:52:55;;;;;;;4.47;1.70;;;;;;;;;;5089762;28;20024;-59
2022/08/04 05:55:21;;;;;;;5.68;1.77;;;;;;;22.72;61.66;98479.09;5103107;28;20050;-59
2022/08/04 05:57:48;;;;;;;3.90;1.85;;;;;;;22.92;61.20;98478.88;5085270;28;20039;-59
2022/08/04 06:00:16;;;;;;;6.50;1.63;;;;;;;23.21;60.02;98478.00;5106164;28;20032;-58
2022/08/04 06:02:45;;;;;;;4.00;1.95;;;;;;;23.34;59.81;98482.84;5088572;28;20062;-58
2022/08/04 06:05:13;;;;;;;6.95;1.90;;;;;;;23.65;59.57;98484.38;5089845;28;20020;-58
2022/08/04 06:07:39;;;;;;;3.60;1.60;;;;;;;24.01;58.20;98485.53;5088873;28;20046;-58
2022/08/04 06:10:06;;;;;;;3.00;1.90;;;;;;;24.29;57.79;98488.44;5088438;28;20339;-59
2022/08/04 06:12:39;;;;;;;6.15;2.05;;;;;;;24.34;57.36;98485.59;5084573;28;20054;-59
2022/08/04 06:15:08;;;;;;;2.03;1.60;;;;;;;24.58;56.74;98481.91;5090813;28;20027;-66
2022/08/04 06:17:37;;;;;;;4.23;1.60;;;;;;;25.00;55.58;98486.38;5081030;28;20024;-67
2022/08/04 06:20:06;;;;;;;3.15;1.80;;;;;;;25.46;55.31;98481.91;5092161;28;20050;-66
2022/08/04 06:22:33;;;;;;;3.17;1.60;;;;;;;25.58;54.31;98487.75;5094797;28;20050;-66
2022/08/04 06:25:01;;;;;;;4.05;1.70;;;;;;;26.09;52.83;98480.25;5091453;28;20181;-65
2022/08/04 06:27:28;;;;;;;4.50;1.80;;;;;;;26.62;51.45;98488.69;5091396;28;20107;-65
2022/08/04 06:29:57;;;;;;;5.38;1.75;;;;;;;27.05;49.90;98492.84;5091983;28;20035;-65
2022/08/04 06:32:27;;;;;;;12.52;1.95;;;;;;;27.85;48.14;98488.06;5092108;28;20035;-64
2022/08/04 06:34:58;;;;;;;10.57;1.92;;;;;;;29.31;44.12;98487.38;5087143;28;20027;-65
2022/08/04 06:37:25;;;;;;;7.80;1.80;;;;;;;31.37;39.85;98486.31;5086652;28;20415;-65
2022/08/04 06:39:52;;;;;;;3.65;1.50;;;;;;;33.20;36.80;98483.31;5080250;28;20385;-64
2022/08/04 06:42:21;;;;;;;11.82;1.90;;;;;;;34.75;34.35;98477.22;5089046;28;20077;-65
2022/08/04 06:44:50;;;;;;;13.13;1.90;;;;;;;35.76;32.70;98483.38;5083106;28;20019;-64
2022/08/04 06:47:18;;;;;;;;;;;;;;;36.07;31.84;98481.44;5105509;28;20040;-64
2022/08/04 06:49:46;;;;;;;10.57;1.80;;;;;;;36.88;30.73;98478.00;5086710;28;20363;-65
2022/08/04 06:52:16;;;;;;;8.43;1.67;;;;;;;36.97;30.47;98483.31;5086776;28;20047;-64
2022/08/04 06:54:46;;;;;;;3.30;1.48;;;;;;;37.39;29.10;98482.09;5084069;28;21154;-65
2022/08/04 06:57:19;;;;;;;6.85;1.70;;;;;;;38.40;28.52;98483.59;5101891;28;20027;-65
2022/08/04 06:59:48;;;;;;;8.57;1.67;;;;;;;38.79;27.57;98480.91;5092279;22;20032;-69
2022/08/04 07:02:15;;;;;;;;;;;;;;;38.84;27.45;98483.34;5071305;28;20024;-71
2022/08/04 07:04:42;;;;;;;13.50;2.10;;;;;;;39.48;26.79;98485.47;5057930;28;19913;-69
2022/08/04 07:07:09;;;;;;;5.95;1.38;;;;;;;39.60;26.05;98481.41;5051768;28;20094;-69
2022/08/04 07:09:34;;;;;;;4.28;1.33;;;;;;;39.74;25.44;98475.72;5050752;28;20041;-69
2022/08/04 07:12:01;;;;;;;11.07;1.45;;;;;;;41.12;24.05;98477.66;5053479;28;20043;-70
2022/08/04 07:14:26;;;;;;;6.45;1.30;;;;;;;41.44;23.56;98460.34;5028774;28;20037;-69
2022/08/04 07:16:53;;;;;;;4.95;1.23;;;;;;;41.64;22.97;98474.78;5045118;28;20090;-69
2022/08/04 07:19:19;;;;;;;5.10;1.30;;;;;;;41.12;23.45;98481.28;5044376;28;20091;-69
2022/08/04 07:21:45;;;;;;;5.45;1.17;;;;;;;40.72;23.98;98466.53;5039381;28;20029;-70
2022/08/04 07:24:10;;;;;;;4.45;1.10;;;;;;;41.05;23.43;98471.97;5049703;28;20106;-69
2022/08/04 07:26:36;;;;;;;1.83;1.00;;;;;;;41.26;22.90;98471.03;5054418;28;20467;-70
2022/08/04 07:29:01;;;;;;;6.65;1.20;;;;;;;41.57;22.14;98464.28;5037275;28;20029;-70
2022/08/04 07:31:27;;;;;;;4.53;1.00;;;;;;;41.56;22.63;98462.69;5053515;28;20493;-69
2022/08/04 07:33:56;;;;;;;11.60;1.02;;;;;;;40.96;22.95;98470.41;5032921;28;20032;-69
2022/08/04 07:36:22;;;;;;;3.45;1.30;;;;;;;41.17;23.10;98468.69;5051812;28;20028;-70
2022/08/04 07:38:47;;;;;;;3.17;1.20;;;;;;;41.32;23.33;98475.03;5033737;28;20094;-69
2022/08/04 07:41:18;;;;;;;2.38;0.88;;;;;;;41.90;22.18;98470.47;5051460;28;20420;-69
2022/08/04 07:43:45;;;;;;;3.28;1.10;;;;;;;41.66;21.61;98465.84;5049131;28;20033;-69
2022/08/04 07:46:10;;;;;;;2.75;1.00;;;;;;;41.09;22.42;98470.78;5051961;28;20052;-69
2022/08/04 07:48:37;;;;;;;2.67;1.10;;;;;;;41.22;22.39;98467.44;5051020;28;20116;-68
2022/08/04 07:51:03;;;;;;;2.95;1.08;;;;;;;40.23;23.37;98474.03;5050332;28;20421;-69
2022/08/04 07:53:29;;;;;;;3.30;1.10;;;;;;;40.13;23.79;98469.19;5031221;28;20031;-69
2022/08/04 07:55:56;;;;;;;2.40;0.98;;;;;;;40.67;23.07;98474.69;5050318;28;20025;-71
2022/08/04 07:58:21;;;;;;;7.32;1.00;;;;;;;41.04;22.95;98476.84;5051856;28;20031;-71
2022/08/04 08:00:47;;;;;;;3.92;1.10;;;;;;;41.34;22.16;98466.91;5052741;28;20029;-71
2022/08/04 08:03:14;;;;;;;4.82;1.10;;;;;;;40.44;23.07;98460.97;5052540;28;20039;-70
2022/08/04 08:05:39;;;;;;;4.68;0.88;;;;;;;41.13;22.13;98460.19;5049546;28;20555;-71
2022/08/04 08:08:04;;;;;;;3.90;1.27;;;;;;;40.76;22.84;98460.03;5050517;28;20132;-71
2022/08/04 08:10:30;;;;;;;4.22;1.00;;;;;;;41.29;22.87;98461.69;5052747;28;20063;-71
2022/08/04 08:12:56;;;;;;;2.63;1.00;;;;;;;42.18;21.72;98462.84;5054889;28;20045;-71
2022/08/04 08:15:21;;;;;;;3.42;0.80;;;;;;;42.42;21.31;98458.09;5052623;28;20074;-72
2022/08/04 08:17:47;;;;;;;6.80;1.30;;;;;;;42.90;21.48;98465.59;5051944;28;20036;-71
2022/08/04 08:20:12;;;;;;;2.45;0.93;;;;;;;42.95;20.92;98467.97;5057176;28;20024;-71
2022/08/04 08:22:38;;;;;;;5.18;0.90;;;;;;;43.20;20.63;98461.06;5052747;28;20024;-71
2022/08/04 08:25:07;;;;;;;3.05;1.00;;;;;;;43.42;20.19;98459.50;5049736;28;20035;-71
2022/08/04 08:27:33;;;;;;;3.90;1.00;;;;;;;43.70;20.13;98463.06;5056159;28;20123;-70
2022/08/04 08:29:59;;;;;;;2.05;1.10;;;;;;;43.36;20.54;98457.56;5058208;28;20112;-71
2022/08/04 08:32:24;;;;;;;4.72;1.00;;;;;;;43.66;20.86;98454.59;5047734;28;20920;-70
2022/08/04 08:34:50;;;;;;;5.32;1.10;;;;;;;43.43;20.88;98454.59;5054639;28;20048;-71
2022/08/04 08:37:47;;;;;;;1.27;0.98;;;;;;;44.51;19.46;98445.59;5051690;28;20099;-71
2022/08/04 08:40:34;;;;;;;6.30;1.02;;;;;;;43.58;20.18;98458.81;5059594;28;20110;-70
2022/08/04 08:43:26;;;;;;;4.30;0.73;;;;;;;43.88;20.25;98449.28;5052721;28;20399;-71
2022/08/04 08:46:10;;;;;;;5.50;1.02;;;;;;;42.49;21.07;98451.53;5051799;28;20037;-70
2022/08/04 08:48:58;;;;;;;1.73;0.88;;;;;;;42.55;21.06;98458.34;5053734;28;20428;-71
2022/08/04 08:51:31;;;;;;;2.55;0.85;;;;;;;42.29;21.28;98428.59;5008361;28;20041;-71
2022/08/04 08:54:13;;;;;;;4.60;0.90;;;;;;;42.77;20.76;98454.00;5056924;28;20382;-71
2022/08/04 08:56:47;;;;;;;2.70;1.00;;;;;;;43.25;20.80;98452.84;5042292;28;20066;-70
2022/08/04 08:59:22;;;;;;;6.50;1.08;;;;;;;43.47;20.31;98456.16;5042683;28;20029;-71
2022/08/04 09:01:56;;;;;;;5.68;1.08;;;;;;;43.28;20.26;98454.81;5047993;28;20083;-70
2022/08/04 09:04:24;;;;;;;6.97;1.38;;;;;;;43.16;20.51;98446.88;5046358;28;20048;-71
2022/08/04 09:06:58;;;;;;;4.35;1.10;;;;;;;44.22;19.86;98448.22;5051352;28;20332;-72
2022/08/04 09:09:36;;;;;;;5.63;1.00;;;;;;;44.50;19.61;98444.00;5051686;28;20033;-71
2022/08/04 09:12:08;;;;;;;6.32;1.10;;;;;;;44.00;19.80;98447.06;5048026;28;20024;-75
2022/08/04 09:14:45;;;;;;;7.65;1.00;;;;;;;44.75;19.30;98448.31;5055878;28;20085;-76
2022/08/04 09:17:25;;;;;;;2.78;0.90;;;;;;;44.24;19.60;98445.75;5053581;28;20028;-77
2022/08/04 09:20:04;;;;;;;7.93;1.08;;;;;;;44.49;18.80;98445.25;5049196;28;20033;-81
2022/08/04 09:22:46;;;;;;;2.47;1.00;;;;;;;44.31;19.36;98442.75;5052421;28;20044;-81
2022/08/04 09:25:24;;;;;;;2.33;0.82;;;;;;;43.86;19.62;98448.94;5040273;28;20021;-83
2022/08/04 09:27:59;;;;;;;1.10;1.00;;;;;;;45.11;18.97;98450.34;5062018;28;20025;-83
2022/08/04 09:30:55;;;;;;;5.10;1.17;;;;;;;44.90;18.56;98452.47;5037052;28;20100;-76
2022/08/04 09:33:32;;;;;;;1.83;0.85;;;;;;;44.28;19.16;98452.19;5037729;28;20425;-81
2022/08/04 09:36:06;;;;;;;1.35;0.80;;;;;;;45.72;17.98;98443.91;5027307;28;20124;-75
2022/08/04 09:38:48;;;;;;;2.80;1.08;;;;;;;45.26;18.17;98446.72;5047740;28;20025;-77
2022/08/04 09:41:55;;;;;;;2.30;0.85;;;;;;;45.61;18.29;98449.91;5035633;28;20017;-79
2022/08/04 09:44:32;;;;;;;3.33;0.90;;;;;;;44.83;18.63;98439.19;5053820;28;20041;-82
2022/08/04 09:47:12;;;;;;;1.83;0.82;;;;;;;45.70;17.70;98432.94;5054290;28;20048;-79
2022/08/04 09:49:47;;;;;;;1.38;0.82;;;;;;;45.85;17.67;98441.91;5050300;28;20028;-77
2022/08/04 09:52:37;;;;;;;1.70;1.00;;;;;;;45.47;18.36;98405.34;5036419;28;20111;-79
2022/08/04 09:55:45;;;;;;;1.15;0.80;;;;;;;45.35;18.49;98428.94;5037826;28;20494;-77
2022/08/04 09:58:47;;;;;;;1.85;0.93;;;;;;;44.10;19.25;98429.75;4974587;28;20045;-75
2022/08/04 10:01:19;;;;;;;2.97;1.00;;;;;;;44.97;18.45;98431.53;5054714;28;20078;-70
2022/08/04 10:03:50;;;;;;;1.40;0.95;;;;;;;44.65;18.70;98430.22;5051389;28;20035;-71
2022/08/04 10:06:33;;;;;;;1.77;0.98;;;;;;;46.57;17.32;98425.53;5044892;28;20624;-71
2022/08/04 10:09:17;;;;;;;0.82;0.80;;;;;;;46.58;17.51;98429.19;5044696;28;20067;-70
2022/08/04 10:12:16;;;;;;;1.40;0.90;;;;;;;46.98;16.91;98423.81;5041665;28;20263;-71
2022/08/04 10:14:56;;;;;;;1.00;0.93;;;;;;;46.21;18.05;98406.56;5025561;28;20037;-70
2022/08/04 10:17:37;;;;;;;4.90;0.93;;;;;;;46.60;17.56;98410.31;5045387;28;20062;-71
2022/08/04 10:20:10;;;;;;;1.38;0.85;;;;;;;45.34;17.81;98413.06;5044840;28;20053;-73
2022/08/04 10:22:40;;;;;;;1.27;0.75;;;;;;;45.66;18.22;98415.06;5045455;28;20083;-72
2022/08/04 10:25:20;;;;;;;1.60;0.88;;;;;;;44.39;18.85;98414.91;5047524;28;20052;-71
2022/08/04 10:27:53;;;;;;;3.55;1.00;;;;;;;44.62;18.93;98403.38;5042826;28;20061;-71
2022/08/04 10:30:20;;;;;;;4.97;0.88;;;;;;;45.52;17.98;98406.06;5044989;28;20083;-73
2022/08/04 10:33:10;;;;;;;1.98;0.75;;;;;;;46.59;17.08;98405.84;5046567;28;20116;-73
2022/08/04 10:35:45;;;;;;;1.67;0.90;;;;;;;46.28;17.36;98394.91;5048862;28;20646;-73
2022/08/04 10:38:24;;;;;;;1.48;1.15;;;;;;;44.97;18.28;98405.81;5049260;28;20425;-71
2022/08/04 10:41:11;;;;;;;1.35;0.88;;;;;;;46.40;17.39;98396.22;5045724;28;20505;-75
2022/08/04 10:43:58;;;;;;;2.90;0.93;;;;;;;46.42;16.74;98398.63;5045195;28;20058;-70
2022/08/04 10:46:31;;;;;;;0.82;0.82;;;;;;;46.28;16.77;98394.91;5044009;28;20037;-71
2022/08/04 10:49:01;;;;;;;1.55;0.93;;;;;;;46.20;17.33;98395.59;5040489;28;20029;-71
2022/08/04 10:51:40;;;;;;;2.85;1.33;;;;;;;45.32;17.82;98392.69;5048524;28;20383;-73
2022/08/04 10:54:10;;;;;;;3.10;0.90;;;;;;;46.21;17.32;98380.81;5050253;28;20024;-73
2022/08/04 10:56:42;;;;;;;5.03;1.00;;;;;;;46.86;17.33;98388.22;5048216;28;20071;-72
2022/08/04 10:59:15;;;;;;;2.83;1.00;;;;;;;48.28;15.67;98386.50;5053111;28;20040;-73
2022/08/04 11:01:47;;;;;;;1.55;0.90;;;;;;;46.93;16.39;98390.88;5048482;28;20715;-72
2022/08/04 11:04:28;;;;;;;2.40;1.00;;;;;;;46.55;17.01;98390.84;5053167;28;20032;-72
2022/08/04 11:06:54;;;;;;;3.03;0.80;;;;;;;47.50;16.54;98384.47;5051015;28;20144;-72
2022/08/04 11:09:21;;;;;;;0.85;0.82;;;;;;;45.71;17.35;98385.13;5053032;28;20067;-72
2022/08/04 11:11:53;;;;;;;2.03;1.05;;;;;;;45.65;17.03;98375.53;5047048;28;20389;-71
2022/08/04 11:14:23;;;;;;;1.85;0.90;;;;;;;47.31;16.07;98383.47;5052194;28;20029;-71
2022/08/04 11:16:54;;;;;;;6.88;1.10;;;;;;;45.65;16.59;98372.66;5052314;28;20028;-71
2022/08/04 11:19:31;;;;;;;0.85;0.70;;;;;;;47.66;15.60;98380.59;5050946;28;20461;-72
2022/08/04 11:22:02;;;;;;;1.77;0.90;;;;;;;47.41;16.08;98385.97;5049239;28;20105;-71
2022/08/04 11:24:49;;;;;;;0.80;0.80;;;;;;;47.15;15.98;98372.97;5047157;28;20036;-70
2022/08/04 11:27:36;;;;;;;1.05;0.88;;;;;;;45.99;16.49;98374.16;5046961;28;20029;-71
2022/08/04 11:30:05;;;;;;;1.38;0.85;;;;;;;46.09;16.83;98379.56;5009367;28;20508;-72
2022/08/04 11:32:50;;;;;;;1.58;1.08;;;;;;;45.29;17.58;98379.31;5050295;28;20158;-71
2022/08/04 11:35:29;;;;;;;3.00;1.10;;;;;;;44.59;17.85;98384.25;5046909;28;20082;-71
2022/08/04 11:38:27;;;;;;;1.13;0.77;;;;;;;46.62;16.45;98387.75;5042568;28;20036;-73
2022/08/04 11:40:57;;;;;;;1.63;0.80;;;;;;;46.65;17.02;98378.25;5046336;28;20029;-71
2022/08/04 11:43:40;;;;;;;2.60;0.90;;;;;;;46.88;17.04;98379.19;5063325;28;20029;-71
2022/08/04 11:46:11;;;;;;;1.90;1.08;;;;;;;47.58;16.30;98377.19;5050998;28;20033;-70
2022/08/04 11:48:43;;;;;;;1.73;0.90;;;;;;;48.05;16.22;98376.28;5045640;28;20033;-71
2022/08/04 11:51:10;;;;;;;1.27;0.85;;;;;;;49.23;15.40;98374.41;5054535;28;20090;-72
2022/08/04 11:53:37;;;;;;;2.20;0.85;;;;;;;49.10;14.92;98365.16;5051762;28;20478;-72
2022/08/04 11:56:07;;;;;;;1.13;0.82;;;;;;;49.36;15.07;98371.44;5051552;28;20393;-72
2022/08/04 11:58:32;;;;;;;1.35;0.93;;;;;;;48.29;14.90;98359.41;5050353;28;20025;-72
2022/08/04 12:01:11;;;;;;;3.60;0.93;;;;;;;48.20;14.97;98368.75;5052742;28;20393;-71
2022/08/04 12:03:49;;;;;;;2.25;1.00;;;;;;;49.06;15.36;98358.78;5056689;28;20102;-72
2022/08/04 12:06:15;;;;;;;2.58;0.73;;;;;;;49.36;15.00;98368.56;5051579;28;20055;-72
2022/08/04 12:09:15;;;;;;;1.87;0.77;;;;;;;49.66;14.92;98360.28;5055264;28;20033;-72
2022/08/04 12:12:05;;;;;;;1.70;1.00;;;;;;;49.24;14.95;98358.78;5050406;28;20028;-71
2022/08/04 12:14:51;;;;;;;1.38;0.90;;;;;;;50.02;14.68;98355.78;5043578;28;20025;-72
2022/08/04 12:17:26;;;;;;;1.75;0.98;;;;;;;49.36;15.00;98351.31;5051275;28;20021;-72
2022/08/04 12:20:00;;;;;;;1.83;0.90;;;;;;;48.49;15.14;98362.69;5049916;28;20107;-72
2022/08/04 12:22:31;;;;;;;2.17;0.85;;;;;;;48.01;15.14;98364.97;5053236;28;20107;-71